Villa Clarita, Puerto Rico
Current Conditions -  °F | °C
As of 7:53 PM on Sunday 23 Nov 2014 (Local Time) from TJNR Reporting Station
Overcast Overcast  
Wind Chill: 81°   Ceiling: 7000
Heat Index: 84°   Visibility: 10mi
Dew Point: 70°   Wind: 10mph
Humidity: 69%   Direction: 80°E
Pressure: 30.04"   Gusts: NA
Location:  18.3304°N, 65.6573°W
Report Text: TJNR 232353Z AUTO 08009KT 10SM OVC070 27/21 A3004 RMK AO2 SLP172 T02720211 10300 20272 53012 $
Loading
Personal Weather Stations






























Interactive Weather Map New forecast layout! Learn more

10-Day Weather Forecast

Advertisements
Track Severe Weather on mobile